Time;durP1;ratioP1;P1;durP2;ratioP2;P2;SDS_P1;SDS_P2;PMS_P1;PMS_P2;Temp;Humidity;BMP_temperature;BMP_pressure;BME280_temperature;BME280_humidity;BME280_pressure;Samples;Min_cycle;Max_cycle;Signal;HPM_P1;HPM_P2
2021/05/19 00:01:44;;;;;;;15.60;14.03;;;10.20;99.90;;;;;;4936769;29;20432;-75
2021/05/19 00:04:12;;;;;;;13.87;12.33;;;10.20;99.90;;;;;;4935701;29;20508;-75
2021/05/19 00:06:41;;;;;;;14.50;13.10;;;10.10;99.90;;;;;;4935509;29;20961;-75
2021/05/19 00:09:13;;;;;;;15.97;14.37;;;10.10;99.90;;;;;;4935896;29;20471;-75
2021/05/19 00:11:42;;;;;;;15.00;13.50;;;10.10;99.90;;;;;;4935491;29;20535;-74
2021/05/19 00:14:10;;;;;;;14.70;13.40;;;10.00;99.90;;;;;;4935383;29;20456;-75
2021/05/19 00:16:38;;;;;;;15.13;13.73;;;10.00;99.90;;;;;;4935281;29;20455;-75
2021/05/19 00:19:06;;;;;;;16.17;14.50;;;10.00;99.90;;;;;;4935264;29;20476;-75
2021/05/19 00:21:33;;;;;;;15.10;13.60;;;9.90;99.90;;;;;;4936256;29;20839;-75
2021/05/19 00:24:02;;;;;;;16.30;14.73;;;9.90;99.90;;;;;;4936488;29;20455;-74
2021/05/19 00:26:30;;;;;;;15.97;14.50;;;9.90;99.90;;;;;;4936805;29;20940;-75
2021/05/19 00:28:59;;;;;;;15.00;13.50;;;9.80;99.90;;;;;;4935027;29;21061;-74
2021/05/19 00:31:31;;;;;;;15.50;14.10;;;9.80;99.90;;;;;;4935188;29;20448;-75
2021/05/19 00:33:59;;;;;;;16.43;14.77;;;9.80;99.90;;;;;;4936700;29;20496;-75
2021/05/19 00:36:27;;;;;;;16.50;14.90;;;9.70;99.90;;;;;;4936377;29;20439;-74
2021/05/19 00:38:57;;;;;;;18.33;16.70;;;9.70;99.90;;;;;;4934954;29;20511;-74
2021/05/19 00:41:25;;;;;;;16.87;15.30;;;9.70;99.90;;;;;;4936058;29;20447;-74
2021/05/19 00:44:03;;;;;;;18.15;16.25;;;9.60;99.90;;;;;;4934817;29;20858;-74
2021/05/19 00:46:31;;;;;;;18.67;16.80;;;9.70;99.90;;;;;;4935089;29;20199;-74
2021/05/19 00:48:58;;;;;;;19.27;17.00;;;9.60;99.90;;;;;;4934899;29;20519;-74
2021/05/19 00:51:27;;;;;;;19.40;17.50;;;9.60;99.90;;;;;;4934963;29;20476;-74
2021/05/19 00:53:56;;;;;;;17.93;16.33;;;9.60;99.90;;;;;;4935134;29;20486;-75
2021/05/19 00:56:24;;;;;;;18.97;17.23;;;9.50;99.90;;;;;;4936678;29;20487;-75
2021/05/19 00:58:55;;;;;;;19.47;17.67;;;9.50;99.90;;;;;;4934895;29;20487;-75
2021/05/19 01:01:23;;;;;;;18.73;17.00;;;9.50;99.90;;;;;;4936824;29;20814;-74
2021/05/19 01:04:06;;;;;;;19.10;17.30;;;9.40;99.90;;;;;;4935297;29;20483;-75
2021/05/19 01:06:51;;;;;;;20.10;18.10;;;9.40;99.90;;;;;;4935467;29;20456;-74
2021/05/19 01:09:36;;;;;;;18.93;17.03;;;9.40;99.90;;;;;;4934841;29;20513;-75
2021/05/19 01:12:07;;;;;;;19.97;18.07;;;9.40;99.90;;;;;;4936541;29;20898;-74
2021/05/19 01:14:37;;;;;;;18.27;16.57;;;9.30;99.90;;;;;;4936479;29;20427;-75
2021/05/19 01:17:05;;;;;;;18.37;16.40;;;9.30;99.90;;;;;;4936328;29;20459;-74
2021/05/19 01:19:35;;;;;;;19.20;17.40;;;9.30;99.90;;;;;;4935621;29;20837;-74
2021/05/19 01:22:07;;;;;;;18.03;16.10;;;9.30;99.90;;;;;;4936198;29;20199;-75
2021/05/19 01:24:35;;;;;;;18.60;16.90;;;9.30;99.90;;;;;;4934698;29;21001;-74
2021/05/19 01:27:04;;;;;;;18.50;16.70;;;9.20;99.90;;;;;;4935189;29;20503;-74
2021/05/19 01:29:31;;;;;;;17.60;15.90;;;9.20;99.90;;;;;;4934510;29;20518;-75
2021/05/19 01:32:00;;;;;;;20.77;17.93;;;9.20;99.90;;;;;;4934642;29;20491;-75
2021/05/19 01:34:27;;;;;;;17.47;15.87;;;9.10;99.90;;;;;;4937603;29;20452;-74
2021/05/19 01:36:55;;;;;;;19.83;18.03;;;9.10;99.90;;;;;;4939412;29;20921;-75
2021/05/19 01:39:24;;;;;;;20.80;18.83;;;9.10;99.90;;;;;;4938088;29;20483;-74
2021/05/19 01:41:51;;;;;;;18.80;16.90;;;9.10;99.90;;;;;;4939288;29;20491;-74
2021/05/19 01:44:20;;;;;;;19.30;17.47;;;9.00;99.90;;;;;;4938806;29;20550;-75
2021/05/19 01:47:05;;;;;;;18.80;16.90;;;9.00;99.90;;;;;;4938008;29;20514;-74
2021/05/19 01:49:39;;;;;;;20.40;18.40;;;9.00;99.90;;;;;;4937948;29;20526;-75
2021/05/19 01:52:08;;;;;;;17.70;16.20;;;9.00;99.90;;;;;;4939238;29;20456;-75
2021/05/19 01:54:39;;;;;;;19.13;17.30;;;9.00;99.90;;;;;;4938945;29;20466;-75
2021/05/19 01:57:07;;;;;;;19.27;17.57;;;8.90;99.90;;;;;;4938159;29;20443;-75
2021/05/19 01:59:37;;;;;;;18.47;16.70;;;8.90;99.90;;;;;;4937722;29;20480;-75
2021/05/19 02:02:05;;;;;;;17.70;16.10;;;8.90;99.90;;;;;;4937770;29;21040;-75
2021/05/19 02:04:34;;;;;;;19.33;17.63;;;8.90;99.90;;;;;;4937612;29;20451;-75
2021/05/19 02:07:01;;;;;;;19.93;17.90;;;8.80;99.90;;;;;;4937632;29;20464;-75
2021/05/19 02:09:40;;;;;;;18.83;17.02;;;8.80;99.90;;;;;;4936452;29;20475;-75
2021/05/19 02:12:12;;;;;;;17.13;14.70;;;8.90;99.90;;;;;;4938745;29;20192;-75
2021/05/19 02:14:39;;;;;;;18.77;16.77;;;8.90;99.90;;;;;;4938792;29;20499;-75
2021/05/19 02:17:08;;;;;;;18.67;16.97;;;8.80;99.90;;;;;;4937568;29;20476;-74
2021/05/19 02:19:38;;;;;;;21.07;19.17;;;8.80;99.90;;;;;;4937672;29;20486;-74
2021/05/19 02:22:08;;;;;;;19.37;17.57;;;8.70;99.90;;;;;;4938876;29;20425;-75
2021/05/19 02:24:48;;;;;;;21.20;19.10;;;8.70;99.90;;;;;;4937592;29;20468;-75
2021/05/19 02:27:15;;;;;;;20.97;18.80;;;8.70;99.90;;;;;;4937459;29;20456;-75
2021/05/19 02:29:52;;;;;;;21.33;19.30;;;8.70;99.90;;;;;;4937194;29;20464;-74
2021/05/19 02:32:21;;;;;;;19.57;17.67;;;8.70;99.90;;;;;;4937563;29;20990;-74
2021/05/19 02:34:49;;;;;;;20.00;18.10;;;8.70;99.90;;;;;;4937321;29;20444;-74
2021/05/19 02:37:17;;;;;;;20.43;18.33;;;8.70;99.90;;;;;;4938635;29;20443;-75
2021/05/19 02:39:45;;;;;;;18.87;17.07;;;8.70;99.90;;;;;;4937021;29;20476;-75
2021/05/19 02:42:14;;;;;;;19.67;17.87;;;8.60;99.90;;;;;;4937022;29;20450;-74
2021/05/19 02:44:46;;;;;;;18.93;17.13;;;8.60;99.90;;;;;;4937072;29;20518;-75
2021/05/19 02:47:13;;;;;;;19.70;17.80;;;8.60;99.90;;;;;;4938222;29;20475;-75
2021/05/19 02:49:41;;;;;;;19.50;17.70;;;8.60;99.90;;;;;;4937042;29;20483;-75
2021/05/19 02:52:09;;;;;;;21.53;19.07;;;8.60;99.90;;;;;;4937227;29;21031;-74
2021/05/19 02:54:38;;;;;;;19.07;17.27;;;8.60;99.90;;;;;;4936739;29;20467;-75
2021/05/19 02:57:07;;;;;;;19.97;18.03;;;8.50;99.90;;;;;;4938036;29;20442;-74
2021/05/19 02:59:35;;;;;;;19.23;17.43;;;8.50;99.90;;;;;;4937123;29;20471;-74
2021/05/19 03:02:03;;;;;;;20.23;18.33;;;8.50;99.90;;;;;;4936734;29;20842;-75
2021/05/19 03:04:31;;;;;;;17.80;16.10;;;8.50;99.90;;;;;;4936668;29;20506;-75
2021/05/19 03:06:59;;;;;;;17.70;16.00;;;8.50;99.90;;;;;;4936561;29;20487;-75
2021/05/19 03:09:26;;;;;;;18.10;16.50;;;8.40;99.90;;;;;;4936481;29;21084;-75
2021/05/19 03:11:54;;;;;;;17.07;15.47;;;8.40;99.90;;;;;;4937985;29;20495;-75
2021/05/19 03:14:22;;;;;;;16.90;15.30;;;8.40;99.90;;;;;;4936419;29;20906;-74
2021/05/19 03:16:50;;;;;;;16.37;14.87;;;8.40;99.90;;;;;;4938288;29;20439;-74
2021/05/19 03:19:18;;;;;;;16.57;15.00;;;8.30;99.90;;;;;;4937554;29;20899;-75
2021/05/19 03:21:45;;;;;;;16.70;15.20;;;8.30;99.90;;;;;;4936312;29;20456;-75
2021/05/19 03:24:13;;;;;;;17.27;15.67;;;8.30;99.90;;;;;;4936313;29;20444;-74
2021/05/19 03:26:41;;;;;;;16.90;15.30;;;8.30;99.90;;;;;;4937385;29;20973;-75
2021/05/19 03:29:08;;;;;;;16.73;15.20;;;8.30;99.90;;;;;;4936202;29;21003;-74
2021/05/19 03:31:36;;;;;;;19.73;17.77;;;8.30;99.90;;;;;;4936136;29;20465;-74
2021/05/19 03:34:05;;;;;;;18.30;16.43;;;8.20;99.90;;;;;;4936142;29;20503;-75
2021/05/19 03:36:33;;;;;;;18.30;16.40;;;8.20;99.90;;;;;;4935998;29;20462;-75
2021/05/19 03:39:01;;;;;;;19.40;17.60;;;8.20;99.90;;;;;;4937477;29;20518;-75
2021/05/19 03:41:28;;;;;;;17.83;16.23;;;8.20;99.90;;;;;;4935883;29;20966;-75
2021/05/19 03:43:56;;;;;;;16.40;14.80;;;8.20;99.90;;;;;;4935947;29;20455;-75
2021/05/19 03:46:24;;;;;;;17.97;16.33;;;8.20;99.90;;;;;;4937076;29;20482;-75
2021/05/19 03:48:53;;;;;;;18.90;17.00;;;8.20;99.90;;;;;;4935908;29;20891;-75
2021/05/19 03:51:22;;;;;;;18.23;16.53;;;8.20;99.90;;;;;;4935662;29;20471;-75
2021/05/19 03:53:50;;;;;;;18.03;16.47;;;8.10;99.90;;;;;;4935675;29;20464;-75
2021/05/19 03:56:18;;;;;;;17.83;16.13;;;8.10;99.90;;;;;;4935093;29;20466;-74
2021/05/19 03:58:46;;;;;;;19.60;17.70;;;8.10;99.90;;;;;;4936827;29;20520;-76
2021/05/19 04:01:15;;;;;;;18.03;16.40;;;8.10;99.90;;;;;;4935753;29;20467;-74
2021/05/19 04:03:43;;;;;;;19.90;18.10;;;8.10;99.90;;;;;;4936725;29;20507;-75
2021/05/19 04:06:11;;;;;;;20.00;18.20;;;8.10;99.90;;;;;;4937146;29;20483;-74
2021/05/19 04:08:41;;;;;;;19.13;17.43;;;8.10;99.90;;;;;;4935586;29;20577;-75
2021/05/19 04:11:11;;;;;;;19.40;17.50;;;8.10;99.90;;;;;;4935498;29;20536;-75
2021/05/19 04:13:38;;;;;;;21.07;18.97;;;8.10;99.90;;;;;;4935566;29;20564;-75
2021/05/19 04:16:07;;;;;;;20.47;18.57;;;8.10;99.90;;;;;;4935449;29;20891;-75
2021/05/19 04:18:36;;;;;;;22.13;20.00;;;8.10;99.90;;;;;;4937077;29;20463;-75
2021/05/19 04:21:05;;;;;;;18.83;17.03;;;8.10;99.90;;;;;;4936618;29;20448;-75
2021/05/19 04:23:34;;;;;;;19.30;17.60;;;8.10;99.90;;;;;;4935335;29;20534;-75
2021/05/19 04:26:02;;;;;;;21.53;19.27;;;8.10;99.90;;;;;;4935251;29;20468;-75
2021/05/19 04:28:30;;;;;;;21.53;19.47;;;8.10;99.90;;;;;;4935591;29;20840;-74
2021/05/19 04:30:58;;;;;;;21.53;19.53;;;8.10;99.90;;;;;;4936830;29;20502;-75
2021/05/19 04:33:25;;;;;;;21.40;19.10;;;8.10;99.90;;;;;;4935105;29;20467;-75
2021/05/19 04:35:55;;;;;;;21.07;18.97;;;8.10;99.90;;;;;;4935214;29;20894;-75
2021/05/19 04:38:23;;;;;;;22.83;20.83;;;8.10;99.90;;;;;;4935092;29;20484;-74
2021/05/19 04:40:53;;;;;;;22.13;20.13;;;8.20;99.90;;;;;;4935076;29;20538;-75
2021/05/19 04:43:22;;;;;;;22.10;20.00;;;8.20;99.90;;;;;;4935185;29;20458;-75
2021/05/19 04:45:50;;;;;;;23.03;20.90;;;8.20;99.90;;;;;;4936034;29;20486;-74
2021/05/19 04:48:17;;;;;;;23.00;20.70;;;8.20;99.90;;;;;;4934990;29;20506;-75
2021/05/19 04:50:45;;;;;;;22.43;20.20;;;8.20;99.90;;;;;;4935192;29;20468;-75
2021/05/19 04:53:14;;;;;;;22.30;20.10;;;8.30;99.90;;;;;;4935307;29;20483;-75
2021/05/19 04:55:41;;;;;;;23.30;21.03;;;8.30;99.90;;;;;;4936269;29;20459;-75
2021/05/19 04:58:09;;;;;;;22.43;20.27;;;8.30;99.90;;;;;;4935126;29;20479;-74
2021/05/19 05:00:38;;;;;;;24.97;22.53;;;8.30;99.90;;;;;;4934916;29;20823;-74
2021/05/19 05:03:06;;;;;;;22.97;20.57;;;8.30;99.90;;;;;;4934891;29;20459;-74
2021/05/19 05:05:33;;;;;;;22.93;20.63;;;8.40;99.90;;;;;;4934854;29;20483;-74
2021/05/19 05:08:01;;;;;;;23.55;21.15;;;8.40;99.90;;;;;;4936028;29;20557;-74
2021/05/19 05:10:29;;;;;;;22.93;20.57;;;8.50;99.90;;;;;;4939810;29;20239;-74
2021/05/19 05:12:56;;;;;;;22.93;20.53;;;8.60;99.90;;;;;;4940412;29;20482;-74
2021/05/19 05:15:24;;;;;;;23.10;20.80;;;8.60;99.90;;;;;;4938573;29;20625;-75
2021/05/19 05:17:53;;;;;;;24.20;21.13;;;8.60;99.90;;;;;;4938755;29;20547;-74
2021/05/19 05:20:21;;;;;;;23.10;20.80;;;8.60;99.90;;;;;;4939742;29;20455;-74
2021/05/19 05:22:49;;;;;;;23.40;21.10;;;8.70;99.90;;;;;;4938608;29;20446;-74
2021/05/19 05:25:18;;;;;;;24.43;21.90;;;8.70;99.90;;;;;;4938462;29;20447;-74
2021/05/19 05:27:47;;;;;;;23.57;21.30;;;8.80;99.90;;;;;;4938332;29;20479;-74
2021/05/19 05:30:17;;;;;;;24.73;22.23;;;8.80;99.90;;;;;;4938481;29;21075;-74
2021/05/19 05:32:44;;;;;;;23.23;20.93;;;8.90;99.90;;;;;;4940876;29;20436;-77
2021/05/19 05:35:13;;;;;;;21.47;19.40;;;9.00;99.90;;;;;;4938360;29;20456;-77
2021/05/19 05:37:43;;;;;;;23.57;21.53;;;9.10;99.90;;;;;;4938291;29;20534;-77
2021/05/19 05:40:11;;;;;;;24.50;20.90;;;9.20;99.90;;;;;;4938084;29;20591;-77
2021/05/19 05:42:39;;;;;;;25.67;20.03;;;9.40;99.90;;;;;;4938443;29;20460;-77
2021/05/19 05:45:09;;;;;;;23.93;21.40;;;9.60;99.90;;;;;;4938380;29;20454;-77
2021/05/19 05:47:36;;;;;;;61.53;49.40;;;9.70;99.90;;;;;;4938003;29;20511;-77
2021/05/19 05:50:07;;;;;;;24.70;22.13;;;9.90;99.90;;;;;;4938043;29;20474;-77
2021/05/19 05:52:35;;;;;;;23.10;20.50;;;10.10;99.90;;;;;;4937885;29;21033;-77
2021/05/19 05:55:04;;;;;;;20.50;18.30;;;10.40;99.90;;;;;;4937780;29;20459;-77
2021/05/19 05:57:32;;;;;;;22.73;19.00;;;10.70;99.90;;;;;;4937791;29;20969;-77
2021/05/19 06:00:00;;;;;;;21.37;19.27;;;11.00;99.90;;;;;;4937802;29;20479;-76
2021/05/19 06:02:41;;;;;;;18.43;16.50;;;11.30;99.90;;;;;;4938936;29;20503;-77
2021/05/19 06:05:11;;;;;;;19.00;17.00;;;11.60;99.90;;;;;;4937972;29;20440;-77
2021/05/19 06:07:39;;;;;;;17.53;15.83;;;11.80;99.90;;;;;;4937514;29;20482;-77
2021/05/19 06:10:08;;;;;;;19.20;17.40;;;12.10;99.90;;;;;;4937581;29;20478;-77
2021/05/19 06:12:36;;;;;;;19.57;17.47;;;12.30;99.90;;;;;;4937581;29;20539;-77
2021/05/19 06:15:06;;;;;;;19.57;17.47;;;12.60;99.90;;;;;;4937520;29;20455;-77
2021/05/19 06:17:33;;;;;;;23.37;20.33;;;12.80;99.90;;;;;;4937495;29;20458;-77
2021/05/19 06:20:01;;;;;;;16.93;15.17;;;13.10;99.90;;;;;;4936505;29;20908;-76
2021/05/19 06:22:29;;;;;;;16.27;14.67;;;13.40;99.90;;;;;;4937310;29;20462;-77
2021/05/19 06:24:58;;;;;;;17.40;15.70;;;13.40;99.90;;;;;;4937334;29;20485;-78
2021/05/19 06:27:25;;;;;;;17.37;15.63;;;13.50;99.90;;;;;;4937316;29;20473;-77
2021/05/19 06:29:54;;;;;;;17.50;15.70;;;13.70;99.90;;;;;;4937178;29;20434;-78
2021/05/19 06:32:21;;;;;;;17.23;15.43;;;13.90;99.90;;;;;;4938455;29;20499;-78
2021/05/19 06:34:49;;;;;;;16.93;15.33;;;14.10;99.90;;;;;;4938627;29;20418;-78
2021/05/19 06:37:17;;;;;;;16.93;15.43;;;14.20;99.90;;;;;;4937086;29;20491;-77
2021/05/19 06:39:45;;;;;;;18.00;16.10;;;14.20;99.90;;;;;;4936604;29;20435;-77
2021/05/19 06:42:14;;;;;;;18.83;16.93;;;14.30;99.90;;;;;;4937144;29;20278;-77
2021/05/19 06:44:42;;;;;;;19.73;17.83;;;14.30;99.90;;;;;;4937107;29;20520;-78
2021/05/19 06:47:10;;;;;;;18.00;16.20;;;14.30;99.90;;;;;;4937019;29;20482;-78
2021/05/19 06:49:38;;;;;;;17.53;15.73;;;14.30;99.90;;;;;;4936911;29;20422;-78
2021/05/19 06:52:06;;;;;;;16.43;14.73;;;14.30;99.90;;;;;;4936964;29;20452;-78
2021/05/19 06:54:34;;;;;;;17.07;15.47;;;14.30;99.90;;;;;;4936913;29;20434;-78
2021/05/19 06:57:05;;;;;;;16.93;15.17;;;14.30;99.90;;;;;;4937202;29;20440;-78
2021/05/19 06:59:36;;;;;;;26.53;15.10;;;14.20;99.90;;;;;;4936743;29;20442;-78
2021/05/19 07:02:03;;;;;;;17.37;15.67;;;14.20;99.90;;;;;;4936683;29;20479;-78
2021/05/19 07:04:31;;;;;;;18.67;16.10;;;14.20;99.90;;;;;;4936602;29;20844;-78
2021/05/19 07:06:59;;;;;;;18.80;16.90;;;14.20;99.90;;;;;;4936580;29;20496;-78
2021/05/19 07:09:28;;;;;;;18.63;16.73;;;14.40;99.90;;;;;;4937716;29;20495;-78
2021/05/19 07:11:56;;;;;;;17.70;15.23;;;14.60;99.90;;;;;;4936497;29;20459;-78
2021/05/19 07:14:27;;;;;;;16.50;14.63;;;15.00;99.90;;;;;;4936415;29;20452;-78
2021/05/19 07:16:56;;;;;;;15.47;13.93;;;15.10;99.90;;;;;;4937597;29;20947;-78
2021/05/19 07:19:24;;;;;;;17.73;13.67;;;15.00;99.90;;;;;;4936350;29;20486;-78
2021/05/19 07:21:54;;;;;;;11.10;9.67;;;14.90;99.90;;;;;;4938146;29;20403;-78
2021/05/19 07:24:22;;;;;;;9.73;8.80;;;14.90;99.90;;;;;;4936377;29;20870;-78
2021/05/19 07:26:51;;;;;;;10.43;9.33;;;14.70;99.90;;;;;;4936536;29;20507;-78
2021/05/19 07:29:20;;;;;;;9.80;8.80;;;14.70;99.90;;;;;;4936074;29;20883;-78
2021/05/19 07:31:48;;;;;;;11.10;8.80;;;14.50;99.90;;;;;;4936122;29;20927;-77
2021/05/19 07:34:17;;;;;;;11.03;9.93;;;14.40;99.90;;;;;;4936008;29;20422;-78
2021/05/19 07:36:47;;;;;;;11.03;9.77;;;14.30;99.90;;;;;;4936028;29;20418;-78
2021/05/19 07:39:15;;;;;;;8.90;7.60;;;14.20;99.90;;;;;;4935930;29;20852;-78
2021/05/19 07:41:45;;;;;;;11.50;9.60;;;14.10;99.90;;;;;;4936267;29;20511;-78
2021/05/19 07:44:13;;;;;;;11.10;10.00;;;14.10;99.90;;;;;;4935861;29;20430;-77
2021/05/19 07:46:40;;;;;;;10.73;9.63;;;14.00;99.90;;;;;;4936709;29;20537;-78
2021/05/19 07:49:07;;;;;;;11.70;10.60;;;13.90;99.90;;;;;;4935868;29;20480;-77
2021/05/19 07:51:35;;;;;;;11.03;9.93;;;13.80;99.90;;;;;;4935932;29;20464;-78
2021/05/19 07:54:03;;;;;;;11.53;9.30;;;13.80;99.90;;;;;;4935756;29;20493;-77
2021/05/19 07:56:35;;;;;;;13.37;11.23;;;13.80;99.90;;;;;;4935809;29;20567;-77
2021/05/19 07:59:05;;;;;;;14.90;13.10;;;13.70;99.90;;;;;;4935636;29;20476;-77
2021/05/19 08:01:54;;;;;;;14.63;13.17;;;13.70;99.90;;;;;;4935761;29;20521;-77
2021/05/19 08:04:21;;;;;;;14.27;12.97;;;13.60;99.90;;;;;;4935149;29;20813;-78
2021/05/19 08:06:48;;;;;;;14.77;13.37;;;13.60;99.90;;;;;;4935318;29;20547;-78
2021/05/19 08:09:15;;;;;;;13.60;11.23;;;13.60;99.90;;;;;;4936883;29;20464;-78
2021/05/19 08:11:41;;;;;;;13.00;11.60;;;13.60;99.90;;;;;;4935389;29;20464;-77
2021/05/19 08:14:09;;;;;;;15.52;12.30;;;13.60;99.90;;;;;;4935359;29;20786;-77
2021/05/19 08:16:36;;;;;;;14.37;12.97;;;13.60;99.90;;;;;;4936943;29;20176;-77
2021/05/19 08:19:03;;;;;;;13.03;11.60;;;13.60;99.90;;;;;;4935075;29;21068;-77
2021/05/19 08:21:31;;;;;;;12.87;11.53;;;13.60;99.90;;;;;;4935171;29;20481;-78
2021/05/19 08:24:00;;;;;;;15.00;11.63;;;13.60;99.90;;;;;;4935182;29;20445;-77
2021/05/19 08:26:27;;;;;;;12.20;10.53;;;13.70;99.90;;;;;;4935037;29;20517;-77
2021/05/19 08:28:55;;;;;;;13.20;11.60;;;13.70;99.90;;;;;;4935119;29;20483;-77
2021/05/19 08:31:23;;;;;;;13.83;12.43;;;13.70;99.90;;;;;;4935201;29;20451;-78
2021/05/19 08:34:04;;;;;;;12.30;10.33;;;13.80;99.90;;;;;;4935148;29;20460;-77
2021/05/19 08:36:33;;;;;;;12.10;10.20;;;13.90;99.90;;;;;;4935058;29;20550;-77
2021/05/19 08:39:01;;;;;;;12.97;11.60;;;14.00;99.90;;;;;;4934881;29;20550;-78
2021/05/19 08:41:31;;;;;;;10.53;9.43;;;14.20;99.90;;;;;;4934691;29;20431;-77
2021/05/19 08:43:59;;;;;;;12.70;9.93;;;14.40;99.90;;;;;;4936515;29;20428;-77
2021/05/19 08:46:28;;;;;;;11.33;10.13;;;14.50;99.90;;;;;;4934918;29;20884;-77
2021/05/19 08:49:02;;;;;;;11.90;10.63;;;14.60;99.90;;;;;;4934890;29;20481;-78
2021/05/19 08:51:30;;;;;;;10.90;9.80;;;14.70;99.90;;;;;;4934882;29;20468;-77
2021/05/19 08:53:57;;;;;;;11.63;9.77;;;14.90;99.90;;;;;;4935948;29;20456;-78
2021/05/19 08:56:28;;;;;;;12.00;10.40;;;15.20;99.90;;;;;;4934859;29;21024;-77
2021/05/19 08:58:56;;;;;;;12.50;10.27;;;15.50;99.90;;;;;;4936059;29;20478;-77
2021/05/19 09:01:25;;;;;;;11.20;9.73;;;15.70;99.90;;;;;;4934722;29;20796;-78
2021/05/19 09:04:03;;;;;;;10.20;9.20;;;15.90;99.90;;;;;;4934645;29;20551;-78
2021/05/19 09:06:35;;;;;;;8.80;8.00;;;16.10;99.90;;;;;;4934730;29;20444;-77
2021/05/19 09:09:25;;;;;;;8.73;8.03;;;16.20;99.90;;;;;;4936118;29;20523;-77
2021/05/19 09:12:13;;;;;;;9.00;8.20;;;16.30;99.90;;;;;;4936431;29;20436;-78
2021/05/19 09:14:42;;;;;;;9.40;8.60;;;16.30;99.90;;;;;;4934752;29;20448;-78
2021/05/19 09:17:22;;;;;;;15.93;14.33;;;16.30;99.90;;;;;;4935307;29;20964;-78
2021/05/19 09:19:57;;;;;;;10.80;9.70;;;16.30;99.90;;;;;;4934634;29;20480;-77
2021/05/19 09:22:28;;;;;;;9.70;8.80;;;16.30;99.90;;;;;;4934647;29;20456;-78
2021/05/19 09:24:57;;;;;;;12.77;11.65;;;16.20;99.90;;;;;;4934084;29;20461;-77
2021/05/19 09:27:38;;;;;;;11.20;10.23;;;16.10;99.90;;;;;;4934464;29;20705;-77
2021/05/19 09:30:07;;;;;;;10.60;9.60;;;16.10;99.90;;;;;;4934489;29;20562;-77
2021/05/19 09:32:37;;;;;;;11.27;10.37;;;16.10;99.90;;;;;;4934473;29;20555;-77
2021/05/19 09:35:06;;;;;;;11.45;10.32;;;16.10;99.90;;;;;;4934194;29;20827;-77
2021/05/19 09:37:35;;;;;;;10.07;9.27;;;16.10;99.90;;;;;;4934532;29;20192;-77
2021/05/19 09:40:05;;;;;;;11.50;10.50;;;16.20;99.90;;;;;;4934449;29;20476;-77
2021/05/19 09:42:49;;;;;;;11.83;10.83;;;16.20;99.90;;;;;;4935264;29;20499;-78
2021/05/19 10:48:33;;;;;;;10.80;9.80;;;18.10;99.90;;;;;;3303903;26;20495;-76
2021/05/19 10:51:31;;;;;;;10.00;9.10;;;18.10;99.90;;;;;;4938925;29;20912;-75
2021/05/19 11:00:11;;;;;;;12.50;11.30;;;18.10;99.90;;;;;;4938056;29;20515;-77
2021/05/19 11:03:16;;;;;;;10.03;9.07;;;18.10;99.70;;;;;;4936550;29;20632;-74
2021/05/19 11:06:06;;;;;;;9.00;8.10;;;18.00;99.70;;;;;;4937776;29;20424;-75
2021/05/19 11:08:39;;;;;;;11.47;9.47;;;18.00;99.60;;;;;;4936381;29;21108;-76
2021/05/19 11:11:20;;;;;;;6.97;6.33;;;17.90;99.60;;;;;;4937017;29;20533;-75
2021/05/19 11:13:57;;;;;;;4.87;4.47;;;17.80;99.30;;;;;;4937498;29;20543;-74
2021/05/19 11:16:28;;;;;;;4.40;4.00;;;17.60;99.00;;;;;;4940480;29;20503;-74
2021/05/19 11:21:44;;;;;;;3.03;2.67;;;17.00;98.90;;;;;;4937995;29;20531;-74
2021/05/19 11:24:14;;;;;;;2.83;2.53;;;16.70;99.00;;;;;;4939830;29;20435;-74
2021/05/19 11:26:43;;;;;;;8.23;2.90;;;16.40;99.10;;;;;;4937081;29;20532;-74
2021/05/19 11:29:13;;;;;;;3.63;2.30;;;16.20;99.30;;;;;;4936728;29;20578;-73
2021/05/19 11:31:44;;;;;;;2.80;2.60;;;16.00;99.50;;;;;;4938034;29;20503;-73
2021/05/19 11:34:13;;;;;;;3.53;2.20;;;16.00;99.70;;;;;;4938355;29;20922;-74
2021/05/19 11:36:42;;;;;;;4.10;3.17;;;15.80;99.60;;;;;;4935867;29;20957;-74
2021/05/19 11:39:32;;;;;;;4.47;4.07;;;15.60;99.70;;;;;;4935905;29;20507;-74
2021/05/19 11:42:23;;;;;;;2.67;2.00;;;15.50;99.90;;;;;;4937054;29;20443;-74
2021/05/19 11:45:08;;;;;;;1.90;1.80;;;15.60;99.90;;;;;;5132647;27;21045;-75
2021/05/19 11:47:37;;;;;;;1.30;1.20;;;15.70;99.90;;;;;;5130476;28;20868;-75
2021/05/19 11:50:25;;;;;;;1.50;1.40;;;15.80;99.90;;;;;;5131758;28;20483;-76
2021/05/19 11:52:56;;;;;;;2.80;1.50;;;15.80;99.90;;;;;;5131022;28;20466;-74
2021/05/19 11:55:31;;;;;;;1.67;1.20;;;15.90;99.90;;;;;;5131924;27;20510;-74
2021/05/19 11:58:20;;;;;;;1.43;1.20;;;15.90;99.90;;;;;;5134150;27;20417;-76
2021/05/19 12:00:51;;;;;;;1.20;1.10;;;16.00;99.90;;;;;;5127396;28;20431;-76
2021/05/19 12:03:20;;;;;;;2.00;1.80;;;16.10;99.90;;;;;;5132252;28;20550;-76
2021/05/19 12:05:50;;;;;;;1.53;1.40;;;16.20;99.90;;;;;;5133580;27;20426;-76
2021/05/19 12:08:20;;;;;;;1.40;1.30;;;16.30;99.90;;;;;;5134020;27;20419;-75
2021/05/19 12:10:50;;;;;;;3.87;2.00;;;16.40;99.90;;;;;;5131025;28;20435;-76
2021/05/19 12:13:27;;;;;;;1.60;1.33;;;16.50;99.90;;;;;;5131475;27;20895;-76
2021/05/19 12:15:57;;;;;;;2.20;2.00;;;16.60;99.90;;;;;;5131988;27;20480;-74
2021/05/19 12:18:25;;;;;;;1.70;1.60;;;16.70;99.90;;;;;;5132293;27;20522;-75
2021/05/19 12:20:53;;;;;;;2.33;1.70;;;16.80;99.90;;;;;;5131997;27;20803;-76
2021/05/19 12:23:21;;;;;;;3.30;3.00;;;16.80;99.90;;;;;;5130797;28;20512;-74
2021/05/19 12:25:49;;;;;;;3.10;2.80;;;16.90;99.90;;;;;;5131756;27;20486;-75
2021/05/19 12:28:22;;;;;;;4.97;4.50;;;17.00;99.90;;;;;;5131830;28;20461;-74
2021/05/19 12:30:51;;;;;;;3.80;3.33;;;17.10;99.90;;;;;;5132195;28;20443;-74
2021/05/19 12:33:24;;;;;;;4.07;3.57;;;17.10;99.90;;;;;;5133800;27;20938;-74
2021/05/19 12:35:53;;;;;;;3.03;2.83;;;17.20;99.90;;;;;;5131224;28;20439;-75
2021/05/19 12:38:24;;;;;;;3.83;2.70;;;17.20;99.90;;;;;;5131930;28;20447;-75
2021/05/19 12:40:54;;;;;;;2.60;2.40;;;17.30;99.90;;;;;;5130641;28;20947;-76
2021/05/19 12:43:27;;;;;;;3.50;2.60;;;17.20;99.90;;;;;;5131580;28;20518;-74
2021/05/19 12:46:09;;;;;;;2.00;1.80;;;17.20;99.90;;;;;;5133046;27;20424;-74
2021/05/19 12:48:52;;;;;;;2.97;2.60;;;17.20;99.90;;;;;;5130588;27;20473;-74
2021/05/19 12:51:20;;;;;;;2.93;2.50;;;17.10;99.90;;;;;;5131557;27;20439;-75
2021/05/19 12:53:55;;;;;;;2.70;2.50;;;17.00;99.90;;;;;;5129815;27;20431;-75
2021/05/19 12:56:24;;;;;;;7.50;5.20;;;16.90;99.70;;;;;;5116774;27;20431;-75
2021/05/19 12:58:55;;;;;;;2.83;2.50;;;16.90;98.90;;;;;;5115736;28;20574;-74
2021/05/19 13:01:24;;;;;;;2.20;2.00;;;16.90;99.00;;;;;;5117147;28;20434;-75
2021/05/19 13:03:53;;;;;;;2.50;2.00;;;16.80;99.00;;;;;;5115326;28;20903;-74
2021/05/19 13:06:25;;;;;;;2.30;2.10;;;16.70;99.00;;;;;;5115247;28;20956;-74
2021/05/19 13:08:58;;;;;;;3.50;2.10;;;16.70;99.00;;;;;;5115836;28;20477;-76
2021/05/19 13:11:26;;;;;;;2.33;2.13;;;16.70;99.00;;;;;;5117569;28;20473;-75
2021/05/19 13:13:54;;;;;;;2.23;2.00;;;16.60;98.90;;;;;;5117313;28;20467;-75
2021/05/19 13:16:24;;;;;;;3.17;2.40;;;16.60;98.90;;;;;;5117727;28;20482;-75
2021/05/19 13:18:56;;;;;;;2.87;1.77;;;16.60;98.80;;;;;;5116206;28;20464;-74
2021/05/19 13:21:28;;;;;;;2.77;2.57;;;16.50;98.70;;;;;;5115978;28;20874;-74
2021/05/19 13:24:02;;;;;;;2.93;2.50;;;16.50;98.70;;;;;;5116753;27;20452;-75
2021/05/19 13:26:31;;;;;;;1.60;1.50;;;16.50;98.70;;;;;;5117643;28;20535;-75
2021/05/19 13:29:00;;;;;;;4.83;2.37;;;16.40;98.50;;;;;;5116859;28;20451;-74
2021/05/19 13:31:31;;;;;;;2.40;2.20;;;16.40;98.50;;;;;;5116790;28;20444;-74
2021/05/19 13:34:14;;;;;;;2.60;2.40;;;16.40;98.50;;;;;;5116881;28;20507;-74
2021/05/19 13:36:43;;;;;;;2.73;2.53;;;16.40;98.40;;;;;;5116448;28;20440;-74
2021/05/19 13:39:13;;;;;;;6.13;5.53;;;16.40;98.30;;;;;;5116270;28;20475;-75
2021/05/19 13:41:42;;;;;;;4.70;4.33;;;16.40;98.30;;;;;;5117092;28;20417;-74
2021/05/19 13:44:10;;;;;;;5.20;4.80;;;16.40;98.30;;;;;;5116391;27;20480;-74
2021/05/19 13:46:42;;;;;;;5.50;4.20;;;16.30;98.20;;;;;;5116178;28;20445;-74
2021/05/19 13:49:17;;;;;;;5.43;4.40;;;16.30;98.30;;;;;;5117002;28;20465;-73
2021/05/19 13:51:46;;;;;;;8.93;4.33;;;16.20;98.20;;;;;;5115743;28;20440;-75
2021/05/19 13:54:14;;;;;;;3.83;3.53;;;16.10;98.00;;;;;;5117461;28;20431;-74
2021/05/19 13:56:42;;;;;;;4.40;4.00;;;15.90;98.10;;;;;;5116068;28;20492;-75
2021/05/19 13:59:10;;;;;;;3.87;3.57;;;15.70;98.30;;;;;;5118862;27;20542;-74
2021/05/19 14:01:39;;;;;;;6.07;4.40;;;15.70;98.50;;;;;;5116962;28;20892;-74
2021/05/19 14:04:07;;;;;;;5.90;5.40;;;15.50;98.50;;;;;;5116773;28;20456;-74